createdAt,value
2018-05-09T00:00:16.653Z,0.00
2018-05-09T00:01:16.711Z,0.00
2018-05-09T00:02:16.772Z,0.00
2018-05-09T00:03:16.835Z,0.00
2018-05-09T00:04:16.894Z,0.00
2018-05-09T00:05:17.204Z,0.00
2018-05-09T00:06:17.013Z,0.00
2018-05-09T00:07:17.074Z,0.00
2018-05-09T00:08:17.135Z,0.00
2018-05-09T00:09:17.195Z,0.00
2018-05-09T00:10:17.256Z,0.00
2018-05-09T00:11:17.316Z,0.00
2018-05-09T00:12:17.375Z,0.00
2018-05-09T00:13:17.435Z,0.00
2018-05-09T00:14:17.495Z,0.00
2018-05-09T00:15:17.559Z,0.00
2018-05-09T00:16:17.621Z,0.00
2018-05-09T00:17:17.675Z,0.00
2018-05-09T00:18:17.740Z,0.00
2018-05-09T00:19:17.797Z,0.00
2018-05-09T00:20:17.969Z,0.00
2018-05-09T00:21:17.916Z,0.00
2018-05-09T00:22:17.978Z,0.00
2018-05-09T00:23:18.044Z,0.00
2018-05-09T00:24:18.098Z,0.00
2018-05-09T00:25:18.157Z,0.00
2018-05-09T00:26:18.218Z,0.00
2018-05-09T00:27:18.277Z,0.00
2018-05-09T00:28:18.336Z,0.00
2018-05-09T00:29:18.397Z,0.00
2018-05-09T00:30:18.461Z,0.00
2018-05-09T00:31:18.518Z,0.00
2018-05-09T00:32:18.578Z,0.00
2018-05-09T00:33:18.637Z,0.00
2018-05-09T00:34:18.699Z,0.00
2018-05-09T00:35:18.757Z,0.00
2018-05-09T00:36:18.818Z,0.00
2018-05-09T00:37:18.876Z,0.00
2018-05-09T00:38:18.937Z,0.00
2018-05-09T00:39:18.997Z,0.00
2018-05-09T00:40:19.057Z,0.00
2018-05-09T00:41:19.118Z,0.00
2018-05-09T00:42:19.177Z,0.00
2018-05-09T00:43:19.237Z,0.00
2018-05-09T00:44:19.301Z,0.00
2018-05-09T00:45:19.359Z,0.00
2018-05-09T00:46:19.417Z,0.00
2018-05-09T00:47:19.477Z,0.00
2018-05-09T00:48:19.536Z,0.00
2018-05-09T00:49:19.596Z,0.00
2018-05-09T00:50:19.657Z,0.00
2018-05-09T00:51:19.716Z,0.00
2018-05-09T00:52:19.778Z,0.00
2018-05-09T00:53:19.835Z,0.00
2018-05-09T00:54:19.896Z,0.00
2018-05-09T00:55:19.957Z,0.00
2018-05-09T00:56:20.016Z,0.00
2018-05-09T00:57:20.074Z,0.00
2018-05-09T00:58:20.134Z,0.00
2018-05-09T00:59:20.194Z,0.00
2018-05-09T01:00:20.253Z,0.00
2018-05-09T01:01:20.313Z,0.00
2018-05-09T01:02:20.373Z,0.00
2018-05-09T01:03:20.439Z,0.00
2018-05-09T01:04:20.494Z,0.00
2018-05-09T01:05:20.552Z,0.00
2018-05-09T01:06:20.613Z,0.00
2018-05-09T01:07:20.673Z,0.00
2018-05-09T01:08:20.733Z,0.00
2018-05-09T01:09:20.792Z,0.00
2018-05-09T01:10:20.852Z,0.00
2018-05-09T01:11:20.913Z,0.00
2018-05-09T01:12:20.972Z,0.00
2018-05-09T01:13:21.031Z,0.00
2018-05-09T01:14:21.090Z,0.00
2018-05-09T01:15:21.151Z,0.00
2018-05-09T01:16:21.210Z,0.00
2018-05-09T01:17:21.268Z,0.00
2018-05-09T01:18:21.328Z,0.00
2018-05-09T01:19:21.389Z,0.00
2018-05-09T01:20:21.449Z,0.00
2018-05-09T01:21:21.509Z,0.00
2018-05-09T01:22:21.568Z,0.00
2018-05-09T01:23:21.626Z,0.00
2018-05-09T01:24:21.837Z,0.00
2018-05-09T01:25:21.746Z,0.00
2018-05-09T01:26:21.806Z,0.00
2018-05-09T01:27:21.866Z,0.00
2018-05-09T01:28:21.925Z,0.00
2018-05-09T01:29:21.985Z,0.00
2018-05-09T01:30:22.043Z,0.00
2018-05-09T01:31:22.103Z,0.00
2018-05-09T01:32:22.162Z,0.00
2018-05-09T01:33:22.221Z,0.00
2018-05-09T01:34:22.281Z,0.00
2018-05-09T01:35:22.345Z,0.00
2018-05-09T01:36:22.400Z,0.00
2018-05-09T01:37:22.460Z,0.00
2018-05-09T01:38:22.519Z,0.00
2018-05-09T01:39:22.580Z,0.00
2018-05-09T01:40:22.639Z,0.00
2018-05-09T01:41:22.847Z,0.00
2018-05-09T01:42:22.757Z,0.00
2018-05-09T01:43:22.817Z,0.00
2018-05-09T01:44:22.876Z,0.00
2018-05-09T01:45:22.935Z,0.00
2018-05-09T01:46:22.995Z,0.00
2018-05-09T01:47:23.055Z,0.00
2018-05-09T01:48:23.115Z,0.00
2018-05-09T01:49:23.174Z,0.00
2018-05-09T01:50:23.235Z,0.00
2018-05-09T01:51:23.294Z,0.00
2018-05-09T01:52:23.353Z,0.00
2018-05-09T01:53:23.412Z,0.00
2018-05-09T01:54:23.472Z,0.00
2018-05-09T01:55:23.531Z,0.00
2018-05-09T01:56:23.591Z,0.00
2018-05-09T01:57:23.650Z,0.00
2018-05-09T01:58:23.708Z,0.00
2018-05-09T01:59:23.767Z,0.00
2018-05-09T02:00:23.891Z,0.00
2018-05-09T02:01:23.904Z,0.00
2018-05-09T02:02:23.945Z,0.00
2018-05-09T02:03:24.015Z,0.00
2018-05-09T02:04:24.064Z,0.00
2018-05-09T02:05:24.122Z,0.00
2018-05-09T02:06:24.181Z,0.00
2018-05-09T02:07:24.242Z,0.00
2018-05-09T02:08:24.303Z,0.00
2018-05-09T02:09:24.611Z,0.00
2018-05-09T02:10:24.425Z,0.00
2018-05-09T02:11:24.480Z,0.00
2018-05-09T02:12:24.539Z,0.00
2018-05-09T02:13:24.600Z,0.00
2018-05-09T02:14:24.655Z,0.00
2018-05-09T02:15:24.719Z,0.00
2018-05-09T02:16:24.775Z,0.00
2018-05-09T02:17:24.833Z,0.00
2018-05-09T02:18:24.892Z,0.00
2018-05-09T02:19:24.965Z,0.00
2018-05-09T02:20:25.011Z,0.00
2018-05-09T02:21:25.071Z,0.00
2018-05-09T02:22:25.134Z,0.00
2018-05-09T02:23:25.190Z,0.00
2018-05-09T02:24:25.269Z,0.00
2018-05-09T02:25:25.321Z,0.00
2018-05-09T02:26:25.368Z,0.00
2018-05-09T02:27:25.425Z,0.00
2018-05-09T02:28:25.485Z,0.00
2018-05-09T02:29:25.552Z,0.00
2018-05-09T02:30:25.603Z,0.00
2018-05-09T02:31:25.679Z,0.00
2018-05-09T02:32:25.721Z,0.00
2018-05-09T02:33:25.785Z,0.00
2018-05-09T02:34:25.840Z,0.00
2018-05-09T02:35:25.899Z,0.00
2018-05-09T02:36:25.959Z,0.00
2018-05-09T02:37:26.018Z,0.00
2018-05-09T02:38:26.077Z,0.00
2018-05-09T02:39:26.137Z,0.00
2018-05-09T02:40:26.196Z,0.00
2018-05-09T02:41:26.255Z,0.00
2018-05-09T02:42:26.312Z,0.00
2018-05-09T02:43:26.376Z,0.00
2018-05-09T02:44:26.433Z,0.00
2018-05-09T02:45:26.490Z,0.00
2018-05-09T02:46:26.550Z,0.00
2018-05-09T02:47:26.608Z,0.00
2018-05-09T02:48:26.669Z,0.00
2018-05-09T02:49:26.725Z,0.00
2018-05-09T02:50:26.787Z,0.00
2018-05-09T02:51:26.844Z,0.00
2018-05-09T02:52:26.908Z,0.00
2018-05-09T02:53:26.963Z,0.00
2018-05-09T02:54:27.022Z,0.00
2018-05-09T02:55:27.081Z,0.00
2018-05-09T02:56:27.141Z,0.00
2018-05-09T02:57:27.198Z,0.00
2018-05-09T02:58:27.258Z,0.00
2018-05-09T02:59:27.321Z,0.00
2018-05-09T03:00:27.375Z,0.00
2018-05-09T03:01:27.435Z,0.00
2018-05-09T03:02:27.494Z,0.00
2018-05-09T03:03:27.551Z,0.00
2018-05-09T03:04:27.612Z,0.00
2018-05-09T03:05:27.669Z,0.00
2018-05-09T03:06:27.727Z,0.00
2018-05-09T03:07:27.786Z,0.00
2018-05-09T03:08:27.846Z,0.00
2018-05-09T03:09:27.903Z,0.00
2018-05-09T03:10:27.962Z,0.00
2018-05-09T03:11:28.021Z,0.00
2018-05-09T03:12:28.235Z,0.00
2018-05-09T03:13:28.139Z,0.00
2018-05-09T03:14:28.198Z,0.00
2018-05-09T03:15:28.257Z,0.00
2018-05-09T03:16:28.316Z,0.00
2018-05-09T03:17:28.523Z,4.00
2018-05-09T03:18:28.433Z,4.00
2018-05-09T03:19:28.491Z,4.00
2018-05-09T03:20:28.568Z,0.00
2018-05-09T03:21:28.607Z,4.00
2018-05-09T03:22:28.667Z,4.00
2018-05-09T03:23:28.726Z,4.00
2018-05-09T03:24:28.786Z,4.00
2018-05-09T03:25:28.843Z,4.00
2018-05-09T03:26:28.902Z,8.00
2018-05-09T03:27:28.962Z,8.00
2018-05-09T03:28:29.021Z,8.00
2018-05-09T03:29:29.079Z,8.00
2018-05-09T03:30:29.139Z,12.00
2018-05-09T03:31:29.196Z,16.00
2018-05-09T03:32:29.256Z,20.00
2018-05-09T03:33:29.313Z,20.00
2018-05-09T03:34:29.374Z,24.00
2018-05-09T03:35:29.431Z,28.00
2018-05-09T03:36:29.491Z,32.00
2018-05-09T03:37:29.604Z,36.00
2018-05-09T03:38:29.607Z,40.00
2018-05-09T03:39:29.672Z,48.00
2018-05-09T03:40:29.725Z,56.00
2018-05-09T03:41:29.784Z,64.00
2018-05-09T03:42:29.842Z,72.00
2018-05-09T03:43:29.902Z,80.00
2018-05-09T03:44:29.961Z,92.00
2018-05-09T03:45:30.020Z,104.00
2018-05-09T03:46:30.078Z,116.00
2018-05-09T03:47:30.141Z,128.00
2018-05-09T03:48:30.196Z,144.00
2018-05-09T03:49:30.253Z,160.00
2018-05-09T03:50:30.313Z,176.00
2018-05-09T03:51:30.372Z,192.00
2018-05-09T03:52:30.680Z,212.00
2018-05-09T03:53:30.489Z,232.00
2018-05-09T03:54:30.547Z,252.00
2018-05-09T03:55:30.604Z,276.00
2018-05-09T03:56:30.669Z,300.00
2018-05-09T03:57:30.727Z,320.00
2018-05-09T03:58:30.781Z,348.00
2018-05-09T03:59:30.841Z,372.00
2018-05-09T04:00:30.913Z,400.00
2018-05-09T04:01:31.025Z,428.00
2018-05-09T04:02:31.021Z,460.00
2018-05-09T04:03:31.227Z,488.00
2018-05-09T04:04:31.135Z,520.00
2018-05-09T04:05:31.524Z,552.00
2018-05-09T04:06:31.255Z,588.00
2018-05-09T04:07:31.315Z,616.00
2018-05-09T04:08:31.371Z,652.00
2018-05-09T04:09:31.536Z,688.00
2018-05-09T04:10:31.508Z,724.00
2018-05-09T04:11:31.548Z,760.00
2018-05-09T04:12:31.603Z,800.00
2018-05-09T04:13:31.661Z,840.00
2018-05-09T04:14:31.720Z,876.00
2018-05-09T04:15:31.779Z,916.00
2018-05-09T04:16:31.839Z,956.00
2018-05-09T04:17:31.904Z,996.00
2018-05-09T04:18:31.955Z,1032.00
2018-05-09T04:19:32.014Z,1072.00
2018-05-09T04:20:32.078Z,1112.00
2018-05-09T04:21:32.134Z,1152.00
2018-05-09T04:22:32.189Z,1192.00
2018-05-09T04:23:32.248Z,1228.00
2018-05-09T04:24:32.307Z,1268.00
2018-05-09T04:25:32.365Z,1308.00
2018-05-09T04:26:32.425Z,1352.00
2018-05-09T04:27:32.484Z,1388.00
2018-05-09T04:28:32.541Z,1432.00
2018-05-09T04:29:32.600Z,1476.00
2018-05-09T04:30:32.658Z,1512.00
2018-05-09T04:31:32.719Z,1548.00
2018-05-09T04:32:32.777Z,1588.00
2018-05-09T04:33:32.835Z,1624.00
2018-05-09T04:34:32.895Z,1656.00
2018-05-09T04:35:32.952Z,1696.00
2018-05-09T04:36:33.014Z,1724.00
2018-05-09T04:37:33.069Z,1756.00
2018-05-09T04:38:33.129Z,1784.00
2018-05-09T04:39:33.187Z,1820.00
2018-05-09T04:40:33.275Z,1848.00
2018-05-09T04:41:33.336Z,1884.00
2018-05-09T04:42:33.441Z,1916.00
2018-05-09T04:43:33.455Z,1948.00
2018-05-09T04:44:33.516Z,1976.00
2018-05-09T04:45:33.579Z,2008.00
2018-05-09T04:46:33.628Z,2036.00
2018-05-09T04:47:33.657Z,2064.00
2018-05-09T04:48:33.715Z,2092.00
2018-05-09T04:49:33.776Z,2116.00
2018-05-09T04:50:33.833Z,2144.00
2018-05-09T04:51:33.892Z,2172.00
2018-05-09T04:52:33.975Z,2200.00
2018-05-09T04:53:34.548Z,2232.00
2018-05-09T04:54:34.100Z,2264.00
2018-05-09T04:55:34.285Z,2288.00
2018-05-09T04:56:34.230Z,2316.00
2018-05-09T04:57:34.245Z,2348.00
2018-05-09T04:58:34.303Z,2376.00
2018-05-09T04:59:34.362Z,2412.00
2018-05-09T05:00:34.420Z,2444.00
2018-05-09T05:01:34.478Z,2472.00
2018-05-09T05:02:34.539Z,2508.00
2018-05-09T05:03:34.598Z,2540.00
2018-05-09T05:04:34.656Z,2568.00
2018-05-09T05:05:34.716Z,2600.00
2018-05-09T05:06:34.776Z,2628.00
2018-05-09T05:07:34.833Z,2656.00
2018-05-09T05:08:34.892Z,2680.00
2018-05-09T05:09:34.950Z,2704.00
2018-05-09T05:10:35.012Z,2736.00
2018-05-09T05:11:35.069Z,2764.00
2018-05-09T05:12:35.129Z,2796.00
2018-05-09T05:13:35.187Z,2832.00
2018-05-09T05:14:35.247Z,2868.00
2018-05-09T05:15:35.306Z,2896.00
2018-05-09T05:16:35.365Z,2928.00
2018-05-09T05:17:35.423Z,2960.00
2018-05-09T05:18:35.482Z,2996.00
2018-05-09T05:19:35.562Z,3020.00
2018-05-09T05:20:35.601Z,3048.00
2018-05-09T05:21:35.816Z,3076.00
2018-05-09T05:22:35.720Z,3092.00
2018-05-09T05:23:36.348Z,3108.00
2018-05-09T05:24:35.841Z,3120.00
2018-05-09T05:25:36.935Z,3128.00
2018-05-09T05:26:35.958Z,3144.00
2018-05-09T05:27:36.016Z,3156.00
2018-05-09T05:28:36.077Z,3172.00
2018-05-09T05:29:36.135Z,3188.00
2018-05-09T05:30:36.559Z,3204.00
2018-05-09T05:31:36.342Z,3220.00
2018-05-09T05:32:36.344Z,3232.00
2018-05-09T05:33:36.471Z,3248.00
2018-05-09T05:34:36.837Z,3264.00
2018-05-09T05:35:36.896Z,3276.00
2018-05-09T05:36:36.673Z,3288.00
2018-05-09T05:37:36.612Z,3300.00
2018-05-09T05:38:36.680Z,3312.00
2018-05-09T05:39:36.750Z,3320.00
2018-05-09T05:40:36.828Z,3332.00
2018-05-09T05:41:37.217Z,3348.00
2018-05-09T05:42:36.926Z,3348.00
2018-05-09T05:43:37.005Z,3360.00
2018-05-09T05:44:37.090Z,3376.00
2018-05-09T05:45:37.090Z,3388.00
2018-05-09T05:46:37.453Z,3404.00
2018-05-09T05:47:37.210Z,3420.00
2018-05-09T05:48:37.269Z,3444.00
2018-05-09T05:49:37.361Z,3460.00
2018-05-09T05:50:37.552Z,3484.00
2018-05-09T05:51:37.483Z,3508.00
2018-05-09T05:52:37.555Z,3524.00
2018-05-09T05:53:37.625Z,3536.00
2018-05-09T05:54:37.661Z,3556.00
2018-05-09T05:55:37.766Z,3572.00
2018-05-09T05:56:37.803Z,3588.00
2018-05-09T05:57:37.862Z,3604.00
2018-05-09T05:58:38.484Z,3624.00
2018-05-09T05:59:38.279Z,3640.00
2018-05-09T06:00:38.036Z,3660.00
2018-05-09T06:01:38.445Z,3680.00
2018-05-09T06:02:38.201Z,3696.00
2018-05-09T06:03:38.210Z,3712.00
2018-05-09T06:04:38.269Z,3728.00
2018-05-09T06:05:38.383Z,3740.00
2018-05-09T06:06:38.728Z,3752.00
2018-05-09T06:07:38.508Z,3780.00
2018-05-09T06:08:39.252Z,3776.00
2018-05-09T06:09:38.919Z,3792.00
2018-05-09T06:10:38.608Z,3812.00
2018-05-09T06:11:38.647Z,3832.00
2018-05-09T06:12:38.709Z,3856.00
2018-05-09T06:13:38.919Z,3880.00
2018-05-09T06:14:38.829Z,3904.00
2018-05-09T06:15:38.889Z,3924.00
2018-05-09T06:16:38.948Z,3944.00
2018-05-09T06:17:39.694Z,3960.00
2018-05-09T06:18:39.989Z,3980.00
2018-05-09T06:19:39.597Z,4000.00
2018-05-09T06:20:39.199Z,4008.00
2018-05-09T06:21:39.252Z,4020.00
2018-05-09T06:22:39.703Z,4028.00
2018-05-09T06:23:39.609Z,4032.00
2018-05-09T06:24:40.379Z,4036.00
2018-05-09T06:25:39.493Z,4052.00
2018-05-09T06:26:39.552Z,4064.00
2018-05-09T06:27:39.658Z,4080.00
2018-05-09T06:28:39.679Z,4088.00
2018-05-09T06:29:40.275Z,4104.00
2018-05-09T06:30:39.795Z,4116.00
2018-05-09T06:31:39.855Z,4136.00
2018-05-09T06:32:39.919Z,4156.00
2018-05-09T06:33:39.975Z,4180.00
2018-05-09T06:34:40.632Z,4196.00
2018-05-09T06:35:40.185Z,4204.00
2018-05-09T06:36:40.193Z,4220.00
2018-05-09T06:37:40.225Z,4232.00
2018-05-09T06:38:40.604Z,4248.00
2018-05-09T06:39:40.344Z,4260.00
2018-05-09T06:40:42.621Z,4328.00
2018-05-09T06:41:41.128Z,4284.00
2018-05-09T06:42:40.558Z,4304.00
2018-05-09T06:43:40.650Z,4320.00
2018-05-09T06:44:41.207Z,4340.00
2018-05-09T06:45:40.707Z,4360.00
2018-05-09T06:46:40.769Z,4376.00
2018-05-09T06:47:40.828Z,4392.00
2018-05-09T06:48:40.889Z,4412.00
2018-05-09T06:49:40.950Z,4432.00
2018-05-09T06:50:41.014Z,4452.00
2018-05-09T06:51:41.072Z,4472.00
2018-05-09T06:52:41.135Z,4488.00
2018-05-09T06:53:41.194Z,4508.00
2018-05-09T06:54:41.255Z,4524.00
2018-05-09T06:55:41.325Z,4536.00
2018-05-09T06:56:41.382Z,4540.00
2018-05-09T06:57:41.438Z,4544.00
2018-05-09T06:58:42.191Z,4552.00
2018-05-09T06:59:41.565Z,4560.00
2018-05-09T07:00:41.625Z,4576.00
2018-05-09T07:01:41.685Z,4600.00
2018-05-09T07:02:41.746Z,4620.00
2018-05-09T07:03:41.807Z,4640.00
2018-05-09T07:04:41.869Z,4664.00
2018-05-09T07:05:41.929Z,4688.00
2018-05-09T07:06:42.280Z,4708.00
2018-05-09T07:07:42.054Z,4724.00
2018-05-09T07:08:42.117Z,4740.00
2018-05-09T07:09:42.177Z,4744.00
2018-05-09T07:10:42.623Z,4752.00
2018-05-09T07:11:42.300Z,4764.00
2018-05-09T07:12:42.406Z,4784.00
2018-05-09T07:13:42.423Z,4804.00
2018-05-09T07:14:42.554Z,4824.00
2018-05-09T07:15:42.546Z,4836.00
2018-05-09T07:16:42.609Z,4844.00
2018-05-09T07:17:42.670Z,4844.00
2018-05-09T07:18:42.734Z,4852.00
2018-05-09T07:19:42.799Z,4864.00
2018-05-09T07:20:43.448Z,4872.00
2018-05-09T07:21:43.093Z,4880.00
2018-05-09T07:22:42.980Z,4888.00
2018-05-09T07:23:43.042Z,4900.00
2018-05-09T07:24:43.103Z,4912.00
2018-05-09T07:25:43.919Z,4924.00
2018-05-09T07:26:44.422Z,4936.00
2018-05-09T07:27:43.291Z,4948.00
2018-05-09T07:28:43.352Z,4960.00
2018-05-09T07:29:43.413Z,4968.00
2018-05-09T07:30:43.476Z,4972.00
2018-05-09T07:31:43.538Z,4972.00
2018-05-09T07:32:43.603Z,4972.00
2018-05-09T07:33:43.663Z,4984.00
2018-05-09T07:34:43.732Z,4996.00
2018-05-09T07:35:43.788Z,5004.00
2018-05-09T07:36:43.850Z,5016.00
2018-05-09T07:37:43.913Z,5016.00
2018-05-09T07:38:43.977Z,5020.00
2018-05-09T07:39:44.051Z,5032.00
2018-05-09T07:40:44.102Z,5044.00
2018-05-09T07:41:44.161Z,5060.00
2018-05-09T07:42:44.226Z,5112.00
2018-05-09T07:43:44.291Z,5080.00
2018-05-09T07:44:44.351Z,5088.00
2018-05-09T07:45:44.413Z,5092.00
2018-05-09T07:46:44.475Z,5096.00
2018-05-09T07:47:44.624Z,5096.00
2018-05-09T07:48:45.004Z,5100.00
2018-05-09T07:49:44.664Z,5100.00
2018-05-09T07:50:44.730Z,5108.00
2018-05-09T07:51:44.789Z,5116.00
2018-05-09T07:52:44.859Z,5132.00
2018-05-09T07:53:44.944Z,5144.00
2018-05-09T07:54:45.132Z,5160.00
2018-05-09T07:55:45.100Z,5172.00
2018-05-09T07:56:45.104Z,5184.00
2018-05-09T07:57:45.167Z,5196.00
2018-05-09T07:58:45.230Z,5216.00
2018-05-09T07:59:45.294Z,5244.00
2018-05-09T08:00:45.360Z,5268.00
2018-05-09T08:01:45.770Z,5292.00
2018-05-09T08:02:45.482Z,5312.00
2018-05-09T08:03:46.028Z,5336.00
2018-05-09T08:04:45.860Z,5364.00
2018-05-09T08:05:45.678Z,5392.00
2018-05-09T08:06:45.736Z,5424.00
2018-05-09T08:07:45.854Z,5448.00
2018-05-09T08:08:45.881Z,5480.00
2018-05-09T08:09:45.945Z,5504.00
2018-05-09T08:10:50.517Z,5524.00
2018-05-09T08:11:46.658Z,5540.00
2018-05-09T08:12:46.906Z,5548.00
2018-05-09T08:13:46.182Z,5564.00
2018-05-09T08:14:46.245Z,5584.00
2018-05-09T08:15:46.308Z,5600.00
2018-05-09T08:16:46.374Z,5616.00
2018-05-09T08:17:46.435Z,5608.00
2018-05-09T08:18:46.503Z,5600.00
2018-05-09T08:19:46.565Z,5596.00
2018-05-09T08:20:46.628Z,5600.00
2018-05-09T08:21:46.692Z,5612.00
2018-05-09T08:22:46.755Z,5632.00
2018-05-09T08:23:46.904Z,5644.00
2018-05-09T08:24:46.887Z,5664.00
2018-05-09T08:25:46.946Z,5684.00
2018-05-09T08:26:47.011Z,5708.00
2018-05-09T08:27:47.078Z,5724.00
2018-05-09T08:28:47.141Z,5736.00
2018-05-09T08:29:47.202Z,5752.00
2018-05-09T08:30:47.267Z,5772.00
2018-05-09T08:31:47.332Z,5796.00
2018-05-09T08:32:48.017Z,5820.00
2018-05-09T08:33:48.128Z,5848.00
2018-05-09T08:34:52.794Z,5868.00
2018-05-09T08:35:47.592Z,5884.00
2018-05-09T08:36:47.698Z,5900.00
2018-05-09T08:37:47.717Z,5912.00
2018-05-09T08:38:48.408Z,5920.00
2018-05-09T08:39:47.854Z,5928.00
2018-05-09T08:40:47.925Z,5924.00
2018-05-09T08:41:47.977Z,5936.00
2018-05-09T08:42:48.047Z,5952.00
2018-05-09T08:43:48.221Z,5964.00
2018-05-09T08:44:48.170Z,5984.00
2018-05-09T08:45:48.967Z,6004.00
2018-05-09T08:46:48.937Z,6004.00
2018-05-09T08:47:48.363Z,6004.00
2018-05-09T08:48:48.429Z,6012.00
2018-05-09T08:49:48.493Z,6016.00
2018-05-09T08:50:48.561Z,6028.00
2018-05-09T08:51:48.623Z,6040.00
2018-05-09T08:52:48.689Z,6052.00
2018-05-09T08:53:48.752Z,6060.00
2018-05-09T08:54:48.818Z,6072.00
2018-05-09T08:55:48.888Z,6080.00
2018-05-09T08:56:48.950Z,6096.00
2018-05-09T08:57:49.014Z,6116.00
2018-05-09T08:58:49.078Z,6128.00
2018-05-09T08:59:49.146Z,6144.00
2018-05-09T09:00:49.211Z,6152.00
2018-05-09T09:01:49.653Z,6168.00
2018-05-09T09:02:49.420Z,6184.00
2018-05-09T09:03:49.405Z,6200.00
2018-05-09T09:04:49.475Z,6208.00
2018-05-09T09:05:49.536Z,6220.00
2018-05-09T09:06:49.602Z,6228.00
2018-05-09T09:07:49.698Z,6232.00
2018-05-09T09:08:49.833Z,6252.00
2018-05-09T09:09:49.807Z,6260.00
2018-05-09T09:10:49.929Z,6268.00
2018-05-09T09:11:49.931Z,6288.00
2018-05-09T09:12:50.347Z,6288.00
2018-05-09T09:13:50.062Z,6300.00
2018-05-09T09:14:50.128Z,6312.00
2018-05-09T09:15:50.506Z,6320.00
2018-05-09T09:16:50.271Z,6332.00
2018-05-09T09:17:50.325Z,6340.00
2018-05-09T09:18:50.390Z,6348.00
2018-05-09T09:19:50.456Z,6360.00
2018-05-09T09:20:50.578Z,6372.00
2018-05-09T09:21:50.589Z,6388.00
2018-05-09T09:22:50.986Z,6400.00
2018-05-09T09:23:50.719Z,6416.00
2018-05-09T09:24:50.825Z,6436.00
2018-05-09T09:25:50.852Z,6448.00
2018-05-09T09:26:50.919Z,6464.00
2018-05-09T09:27:50.985Z,6480.00
2018-05-09T09:28:51.050Z,6496.00
2018-05-09T09:29:51.116Z,6512.00
2018-05-09T09:30:51.185Z,6532.00
2018-05-09T09:31:51.654Z,6564.00
2018-05-09T09:32:51.315Z,6596.00
2018-05-09T09:33:51.383Z,6636.00
2018-05-09T09:34:51.447Z,6672.00
2018-05-09T09:35:52.048Z,6704.00
2018-05-09T09:36:52.104Z,6728.00
2018-05-09T09:37:51.652Z,6756.00
2018-05-09T09:38:52.084Z,6776.00
2018-05-09T09:39:51.781Z,6808.00
2018-05-09T09:40:51.859Z,6836.00
2018-05-09T09:41:51.911Z,6896.00
2018-05-09T09:42:51.980Z,6888.00
2018-05-09T09:43:52.044Z,6916.00
2018-05-09T09:44:52.491Z,6944.00
2018-05-09T09:45:52.178Z,6972.00
2018-05-09T09:46:52.254Z,7000.00
2018-05-09T09:47:52.622Z,7024.00
2018-05-09T09:48:52.378Z,7044.00
2018-05-09T09:49:53.105Z,7060.00
2018-05-09T09:50:52.510Z,7080.00
2018-05-09T09:51:52.588Z,7108.00
2018-05-09T09:52:52.643Z,7132.00
2018-05-09T09:53:52.711Z,7164.00
2018-05-09T09:54:52.778Z,7204.00
2018-05-09T09:55:52.844Z,7248.00
2018-05-09T09:56:52.940Z,7280.00
2018-05-09T09:57:52.977Z,7304.00
2018-05-09T09:58:53.045Z,7336.00
2018-05-09T09:59:53.112Z,7372.00
2018-05-09T10:00:53.180Z,7424.00
2018-05-09T10:01:53.245Z,7492.00
2018-05-09T10:02:53.318Z,7572.00
2018-05-09T10:03:53.383Z,7696.00
2018-05-09T10:04:53.454Z,7872.00
2018-05-09T10:05:53.512Z,8076.00
2018-05-09T10:06:53.581Z,8232.00
2018-05-09T10:07:53.649Z,8460.00
2018-05-09T10:08:53.720Z,8740.00
2018-05-09T10:09:53.783Z,9124.00
2018-05-09T10:10:53.852Z,9772.00
2018-05-09T10:11:53.916Z,10580.00
2018-05-09T10:12:53.990Z,13424.00
2018-05-09T10:13:54.057Z,34176.00
2018-05-09T10:14:54.126Z,60800.00
2018-05-09T10:15:54.275Z,68576.00
2018-05-09T10:16:54.259Z,68928.00
2018-05-09T10:17:54.327Z,68480.00
2018-05-09T10:18:54.398Z,68800.00
2018-05-09T10:19:54.467Z,68896.00
2018-05-09T10:20:54.538Z,68832.00
2018-05-09T10:21:54.609Z,69376.00
2018-05-09T10:22:54.678Z,68640.00
2018-05-09T10:23:54.753Z,68448.00
2018-05-09T10:24:54.822Z,68160.00
2018-05-09T10:25:55.319Z,68576.00
2018-05-09T10:26:54.964Z,67456.00
2018-05-09T10:27:55.038Z,67808.00
2018-05-09T10:28:55.110Z,67712.00
2018-05-09T10:29:55.386Z,67584.00
2018-05-09T10:30:55.257Z,67392.00
2018-05-09T10:31:55.330Z,66528.00
2018-05-09T10:32:55.402Z,66656.00
2018-05-09T10:33:55.475Z,66496.00
2018-05-09T10:34:55.550Z,64896.00
2018-05-09T10:35:55.638Z,64032.00
2018-05-09T10:36:55.706Z,63808.00
2018-05-09T10:37:55.923Z,63264.00
2018-05-09T10:38:55.852Z,62912.00
2018-05-09T10:39:55.925Z,62400.00
2018-05-09T10:40:55.998Z,62336.00
2018-05-09T10:41:56.073Z,61216.00
2018-05-09T10:42:56.149Z,60896.00
2018-05-09T10:43:56.224Z,60288.00
2018-05-09T10:44:56.300Z,59744.00
2018-05-09T10:45:56.375Z,59200.00
2018-05-09T10:46:56.449Z,57856.00
2018-05-09T10:47:56.526Z,57600.00
2018-05-09T10:48:56.610Z,56800.00
2018-05-09T10:49:56.677Z,55520.00
2018-05-09T10:50:56.752Z,54944.00
2018-05-09T10:51:56.832Z,54560.00
2018-05-09T10:52:56.925Z,54368.00
2018-05-09T10:53:57.004Z,53792.00
2018-05-09T10:54:57.083Z,52448.00
2018-05-09T10:55:57.557Z,52000.00
2018-05-09T10:56:57.213Z,51360.00
2018-05-09T10:57:57.708Z,50272.00
2018-05-09T10:58:57.361Z,49824.00
2018-05-09T10:59:57.439Z,49312.00
2018-05-09T11:00:57.520Z,48928.00
2018-05-09T11:01:57.591Z,48800.00
2018-05-09T11:02:57.667Z,47840.00
2018-05-09T11:03:57.744Z,47424.00
2018-05-09T11:04:58.483Z,46720.00
2018-05-09T11:05:58.443Z,46688.00
2018-05-09T11:06:58.647Z,45792.00
2018-05-09T11:07:58.052Z,45696.00
2018-05-09T11:08:58.128Z,46912.00
2018-05-09T11:09:58.204Z,34080.00
2018-05-09T11:10:58.281Z,44480.00
2018-05-09T11:11:58.362Z,44160.00
2018-05-09T11:12:58.437Z,44064.00
2018-05-09T11:13:58.513Z,43744.00
2018-05-09T11:14:58.591Z,43040.00
2018-05-09T11:15:58.666Z,42656.00
2018-05-09T11:16:58.742Z,42080.00
2018-05-09T11:17:58.818Z,41536.00
2018-05-09T11:18:58.899Z,41472.00
2018-05-09T11:19:58.974Z,41120.00
2018-05-09T11:20:59.049Z,41184.00
2018-05-09T11:21:59.126Z,40896.00
2018-05-09T11:22:59.205Z,40672.00
2018-05-09T11:23:59.280Z,40544.00
2018-05-09T11:24:59.358Z,40384.00
2018-05-09T11:25:59.436Z,40416.00
2018-05-09T11:26:59.512Z,40096.00
2018-05-09T11:27:59.590Z,40448.00
2018-05-09T11:28:59.666Z,40640.00
2018-05-09T11:29:59.743Z,40800.00
2018-05-09T11:30:59.827Z,41280.00
2018-05-09T11:31:59.901Z,41984.00
2018-05-09T11:32:59.976Z,43040.00
2018-05-09T11:34:00.202Z,44352.00
2018-05-09T11:35:00.129Z,44768.00
2018-05-09T11:36:00.206Z,43840.00
2018-05-09T11:37:00.284Z,44000.00
2018-05-09T11:38:00.990Z,43136.00
2018-05-09T11:39:00.875Z,43232.00
2018-05-09T11:40:01.090Z,43552.00
2018-05-09T11:41:01.195Z,42784.00
2018-05-09T11:42:01.121Z,18752.00
2018-05-09T11:43:01.307Z,45152.00
2018-05-09T11:44:01.651Z,45344.00
2018-05-09T11:45:01.418Z,36480.00
2018-05-09T11:46:01.129Z,43264.00
2018-05-09T11:47:01.596Z,53920.00
2018-05-09T11:48:01.135Z,54624.00
2018-05-09T11:49:01.762Z,18336.00
2018-05-09T11:50:01.753Z,13756.00
2018-05-09T11:51:01.365Z,13160.00
2018-05-09T11:52:05.811Z,12944.00
2018-05-09T11:53:01.535Z,12548.00
2018-05-09T11:54:01.604Z,12616.00
2018-05-09T11:55:01.670Z,13160.00
2018-05-09T11:56:01.875Z,13336.00
2018-05-09T11:57:02.224Z,13868.00
2018-05-09T11:58:02.504Z,14664.00
2018-05-09T11:59:02.605Z,15640.00
2018-05-09T12:00:02.706Z,16632.00
2018-05-09T12:01:02.573Z,17824.00
2018-05-09T12:02:02.600Z,19616.00
2018-05-09T12:03:02.266Z,23488.00
2018-05-09T12:04:02.866Z,38656.00
2018-05-09T12:05:03.094Z,22272.00
2018-05-09T12:06:03.123Z,20256.00
2018-05-09T12:07:03.214Z,20256.00
2018-05-09T12:08:02.730Z,20096.00
2018-05-09T12:09:02.707Z,21792.00
2018-05-09T12:10:03.393Z,28480.00
2018-05-09T12:11:03.533Z,23712.00
2018-05-09T12:12:03.339Z,23712.00
2018-05-09T12:13:03.672Z,26688.00
2018-05-09T12:14:03.496Z,68384.00
2018-05-09T12:15:03.648Z,85632.00
2018-05-09T12:16:03.908Z,99168.00
2018-05-09T12:17:03.663Z,110560.00
2018-05-09T12:18:03.720Z,101952.00
2018-05-09T12:19:03.969Z,127424.00
2018-05-09T12:20:04.201Z,87712.00
2018-05-09T12:21:04.262Z,121024.00
2018-05-09T12:22:03.649Z,120128.00
2018-05-09T12:23:04.169Z,108032.00